aviador You're here:

YCAS Decoded Metar

in
Report Time2017-08-18 14:00:00
UTC Time2017-08-18 14:22:20
Flight Rules unknown UNKNOWN
Wind330° at 04 kt
W.Decomp.*RWY 28: 2.6 kt HW 3.1 kt RCW
W.Rank330° ranks 5
Current wind is below 330° avg. (6.3)
VisibilityN/A
Phenomena:N/A
Clouds:N/A
Expected CloudBase > 5,600 ft AGL from Temp-Dew spread
CeilingNone
Temp12°C
Dew Point-2°C (38% RH)
AAT8.3°C
QNH1015 hPa
Raw Report
METAR YCAS 181400Z AUTO 33004KT 260V030 //// // ////// 12/M02 Q1015=

Extra information for YCAS:More info

Social comments